sensor_id;sensor_type;location;lat;lon;timestamp;P1;durP1;ratioP1;P2;durP2;ratioP2
61471;SDS011;47337;54.068;12.114;2023-02-15T00:00:19;56.90;;;20.67;;
61471;SDS011;47337;54.068;12.114;2023-02-15T00:02:47;57.13;;;20.75;;
61471;SDS011;47337;54.068;12.114;2023-02-15T00:05:12;62.95;;;21.92;;
61471;SDS011;47337;54.068;12.114;2023-02-15T00:07:38;65.57;;;22.52;;
61471;SDS011;47337;54.068;12.114;2023-02-15T00:10:03;59.00;;;22.77;;
61471;SDS011;47337;54.068;12.114;2023-02-15T00:12:32;57.08;;;19.63;;
61471;SDS011;47337;54.068;12.114;2023-02-15T00:15:00;58.83;;;20.27;;
61471;SDS011;47337;54.068;12.114;2023-02-15T00:17:28;61.85;;;21.75;;
61471;SDS011;47337;54.068;12.114;2023-02-15T00:19:57;51.60;;;21.23;;
61471;SDS011;47337;54.068;12.114;2023-02-15T00:22:22;63.13;;;21.65;;
61471;SDS011;47337;54.068;12.114;2023-02-15T00:24:48;58.15;;;21.42;;
61471;SDS011;47337;54.068;12.114;2023-02-15T00:27:15;57.83;;;20.48;;
61471;SDS011;47337;54.068;12.114;2023-02-15T00:29:46;58.15;;;20.67;;
61471;SDS011;47337;54.068;12.114;2023-02-15T00:32:12;52.00;;;19.83;;
61471;SDS011;47337;54.068;12.114;2023-02-15T00:34:39;50.47;;;20.48;;
61471;SDS011;47337;54.068;12.114;2023-02-15T00:37:08;55.55;;;20.85;;
61471;SDS011;47337;54.068;12.114;2023-02-15T00:39:33;60.67;;;21.05;;
61471;SDS011;47337;54.068;12.114;2023-02-15T00:41:59;54.13;;;20.42;;
61471;SDS011;47337;54.068;12.114;2023-02-15T00:44:24;64.80;;;22.40;;
61471;SDS011;47337;54.068;12.114;2023-02-15T00:46:49;59.17;;;22.70;;
61471;SDS011;47337;54.068;12.114;2023-02-15T00:49:15;59.67;;;21.00;;
61471;SDS011;47337;54.068;12.114;2023-02-15T00:51:42;54.22;;;19.48;;
61471;SDS011;47337;54.068;12.114;2023-02-15T00:54:10;56.78;;;21.75;;
61471;SDS011;47337;54.068;12.114;2023-02-15T00:56:38;66.43;;;21.20;;
61471;SDS011;47337;54.068;12.114;2023-02-15T00:59:03;59.55;;;21.33;;
61471;SDS011;47337;54.068;12.114;2023-02-15T01:01:29;61.33;;;23.65;;
61471;SDS011;47337;54.068;12.114;2023-02-15T01:03:54;61.25;;;21.00;;
61471;SDS011;47337;54.068;12.114;2023-02-15T01:06:19;57.83;;;22.00;;
61471;SDS011;47337;54.068;12.114;2023-02-15T01:08:45;59.10;;;22.55;;
61471;SDS011;47337;54.068;12.114;2023-02-15T01:11:12;56.50;;;23.50;;
61471;SDS011;47337;54.068;12.114;2023-02-15T01:13:47;58.40;;;22.88;;
61471;SDS011;47337;54.068;12.114;2023-02-15T01:16:16;58.10;;;21.55;;
61471;SDS011;47337;54.068;12.114;2023-02-15T01:18:42;60.83;;;21.52;;
61471;SDS011;47337;54.068;12.114;2023-02-15T01:21:09;57.78;;;22.73;;
61471;SDS011;47337;54.068;12.114;2023-02-15T01:23:35;58.75;;;22.17;;
61471;SDS011;47337;54.068;12.114;2023-02-15T01:26:02;62.08;;;20.80;;
61471;SDS011;47337;54.068;12.114;2023-02-15T01:28:28;58.15;;;21.35;;
61471;SDS011;47337;54.068;12.114;2023-02-15T01:30:58;58.58;;;22.10;;
61471;SDS011;47337;54.068;12.114;2023-02-15T01:33:24;65.60;;;21.98;;
61471;SDS011;47337;54.068;12.114;2023-02-15T01:35:55;56.63;;;20.58;;
61471;SDS011;47337;54.068;12.114;2023-02-15T01:38:22;55.33;;;20.40;;
61471;SDS011;47337;54.068;12.114;2023-02-15T01:40:50;61.65;;;22.45;;
61471;SDS011;47337;54.068;12.114;2023-02-15T01:43:17;54.00;;;21.58;;
61471;SDS011;47337;54.068;12.114;2023-02-15T01:45:44;57.08;;;22.45;;
61471;SDS011;47337;54.068;12.114;2023-02-15T01:50:39;60.90;;;22.40;;
61471;SDS011;47337;54.068;12.114;2023-02-15T01:53:09;60.90;;;23.27;;
61471;SDS011;47337;54.068;12.114;2023-02-15T01:55:39;53.15;;;20.63;;
61471;SDS011;47337;54.068;12.114;2023-02-15T01:58:10;54.28;;;22.67;;
61471;SDS011;47337;54.068;12.114;2023-02-15T02:00:36;62.92;;;21.95;;
61471;SDS011;47337;54.068;12.114;2023-02-15T02:03:04;59.58;;;22.58;;
61471;SDS011;47337;54.068;12.114;2023-02-15T02:05:29;59.78;;;21.70;;
61471;SDS011;47337;54.068;12.114;2023-02-15T02:07:56;58.20;;;21.77;;
61471;SDS011;47337;54.068;12.114;2023-02-15T02:10:23;64.80;;;21.85;;
61471;SDS011;47337;54.068;12.114;2023-02-15T02:12:52;64.10;;;22.65;;
61471;SDS011;47337;54.068;12.114;2023-02-15T02:15:21;60.92;;;21.13;;
61471;SDS011;47337;54.068;12.114;2023-02-15T02:18:18;68.80;;;23.90;;
61471;SDS011;47337;54.068;12.114;2023-02-15T02:23:18;59.45;;;23.15;;
61471;SDS011;47337;54.068;12.114;2023-02-15T02:26:02;63.20;;;22.85;;
61471;SDS011;47337;54.068;12.114;2023-02-15T02:36:58;59.55;;;21.67;;
61471;SDS011;47337;54.068;12.114;2023-02-15T02:39:39;62.13;;;22.77;;
61471;SDS011;47337;54.068;12.114;2023-02-15T02:45:24;69.72;;;23.80;;
61471;SDS011;47337;54.068;12.114;2023-02-15T02:47:57;63.05;;;22.98;;
61471;SDS011;47337;54.068;12.114;2023-02-15T02:50:28;66.45;;;23.60;;
61471;SDS011;47337;54.068;12.114;2023-02-15T02:52:57;64.60;;;22.40;;
61471;SDS011;47337;54.068;12.114;2023-02-15T02:55:25;65.97;;;24.77;;
61471;SDS011;47337;54.068;12.114;2023-02-15T02:58:20;64.40;;;21.20;;
61471;SDS011;47337;54.068;12.114;2023-02-15T03:06:10;66.07;;;22.83;;
61471;SDS011;47337;54.068;12.114;2023-02-15T03:08:45;57.53;;;20.63;;
61471;SDS011;47337;54.068;12.114;2023-02-15T03:11:13;59.65;;;22.65;;
61471;SDS011;47337;54.068;12.114;2023-02-15T03:13:41;68.85;;;22.70;;
61471;SDS011;47337;54.068;12.114;2023-02-15T03:16:10;65.88;;;22.55;;
61471;SDS011;47337;54.068;12.114;2023-02-15T03:19:01;69.30;;;22.77;;
61471;SDS011;47337;54.068;12.114;2023-02-15T03:21:38;72.53;;;23.85;;
61471;SDS011;47337;54.068;12.114;2023-02-15T03:24:16;62.95;;;22.58;;
61471;SDS011;47337;54.068;12.114;2023-02-15T03:26:49;73.20;;;23.83;;
61471;SDS011;47337;54.068;12.114;2023-02-15T03:29:18;69.10;;;23.83;;
61471;SDS011;47337;54.068;12.114;2023-02-15T03:31:59;64.97;;;23.90;;
61471;SDS011;47337;54.068;12.114;2023-02-15T03:34:28;67.82;;;24.15;;
61471;SDS011;47337;54.068;12.114;2023-02-15T03:37:03;69.32;;;24.88;;
61471;SDS011;47337;54.068;12.114;2023-02-15T03:39:34;66.05;;;23.45;;
61471;SDS011;47337;54.068;12.114;2023-02-15T03:44:50;74.82;;;24.70;;
61471;SDS011;47337;54.068;12.114;2023-02-15T03:47:28;68.70;;;24.15;;
61471;SDS011;47337;54.068;12.114;2023-02-15T03:50:07;78.65;;;24.60;;
61471;SDS011;47337;54.068;12.114;2023-02-15T03:52:57;65.50;;;22.50;;
61471;SDS011;47337;54.068;12.114;2023-02-15T03:55:25;66.50;;;24.45;;
61471;SDS011;47337;54.068;12.114;2023-02-15T03:57:53;72.18;;;25.20;;
61471;SDS011;47337;54.068;12.114;2023-02-15T04:00:39;70.70;;;23.33;;
61471;SDS011;47337;54.068;12.114;2023-02-15T04:03:36;67.20;;;23.10;;
61471;SDS011;47337;54.068;12.114;2023-02-15T04:06:08;71.95;;;24.55;;
61471;SDS011;47337;54.068;12.114;2023-02-15T04:08:33;74.30;;;24.33;;
61471;SDS011;47337;54.068;12.114;2023-02-15T04:11:19;70.38;;;25.20;;
61471;SDS011;47337;54.068;12.114;2023-02-15T04:13:45;76.30;;;24.33;;
61471;SDS011;47337;54.068;12.114;2023-02-15T04:16:10;59.13;;;23.10;;
61471;SDS011;47337;54.068;12.114;2023-02-15T04:21:22;65.25;;;23.45;;
61471;SDS011;47337;54.068;12.114;2023-02-15T04:24:09;62.40;;;23.55;;
61471;SDS011;47337;54.068;12.114;2023-02-15T04:26:54;68.28;;;24.77;;
61471;SDS011;47337;54.068;12.114;2023-02-15T04:29:24;78.97;;;26.60;;
61471;SDS011;47337;54.068;12.114;2023-02-15T04:31:50;61.03;;;24.30;;
61471;SDS011;47337;54.068;12.114;2023-02-15T04:34:19;71.70;;;25.40;;
61471;SDS011;47337;54.068;12.114;2023-02-15T04:36:47;61.72;;;24.42;;
61471;SDS011;47337;54.068;12.114;2023-02-15T04:39:13;64.68;;;24.45;;
61471;SDS011;47337;54.068;12.114;2023-02-15T04:41:39;61.40;;;22.52;;
61471;SDS011;47337;54.068;12.114;2023-02-15T04:44:05;65.00;;;23.50;;
61471;SDS011;47337;54.068;12.114;2023-02-15T04:46:30;70.18;;;24.13;;
61471;SDS011;47337;54.068;12.114;2023-02-15T04:48:56;69.78;;;25.77;;
61471;SDS011;47337;54.068;12.114;2023-02-15T04:51:22;72.57;;;23.38;;
61471;SDS011;47337;54.068;12.114;2023-02-15T04:53:47;64.25;;;24.77;;
61471;SDS011;47337;54.068;12.114;2023-02-15T04:56:13;68.75;;;22.70;;
61471;SDS011;47337;54.068;12.114;2023-02-15T04:58:38;73.38;;;22.95;;
61471;SDS011;47337;54.068;12.114;2023-02-15T05:01:07;62.58;;;24.58;;
61471;SDS011;47337;54.068;12.114;2023-02-15T05:03:33;63.88;;;22.80;;
61471;SDS011;47337;54.068;12.114;2023-02-15T05:05:59;62.25;;;22.40;;
61471;SDS011;47337;54.068;12.114;2023-02-15T05:08:30;64.10;;;25.05;;
61471;SDS011;47337;54.068;12.114;2023-02-15T05:10:56;76.32;;;24.65;;
61471;SDS011;47337;54.068;12.114;2023-02-15T05:13:24;72.15;;;25.15;;
61471;SDS011;47337;54.068;12.114;2023-02-15T05:15:49;67.38;;;22.75;;
61471;SDS011;47337;54.068;12.114;2023-02-15T05:18:16;65.00;;;23.80;;
61471;SDS011;47337;54.068;12.114;2023-02-15T05:20:42;66.97;;;23.50;;
61471;SDS011;47337;54.068;12.114;2023-02-15T05:23:08;62.58;;;22.80;;
61471;SDS011;47337;54.068;12.114;2023-02-15T05:25:34;63.97;;;22.92;;
61471;SDS011;47337;54.068;12.114;2023-02-15T05:28:17;59.45;;;22.25;;
61471;SDS011;47337;54.068;12.114;2023-02-15T05:30:47;59.50;;;23.85;;
61471;SDS011;47337;54.068;12.114;2023-02-15T05:33:13;62.42;;;23.65;;
61471;SDS011;47337;54.068;12.114;2023-02-15T05:35:38;61.10;;;23.10;;
61471;SDS011;47337;54.068;12.114;2023-02-15T05:38:04;68.97;;;24.63;;
61471;SDS011;47337;54.068;12.114;2023-02-15T05:40:29;63.75;;;24.15;;
61471;SDS011;47337;54.068;12.114;2023-02-15T05:42:55;66.40;;;22.80;;
61471;SDS011;47337;54.068;12.114;2023-02-15T05:45:21;63.65;;;23.05;;
61471;SDS011;47337;54.068;12.114;2023-02-15T05:47:47;65.60;;;23.10;;
61471;SDS011;47337;54.068;12.114;2023-02-15T05:50:14;66.57;;;23.90;;
61471;SDS011;47337;54.068;12.114;2023-02-15T05:52:40;66.25;;;23.02;;
61471;SDS011;47337;54.068;12.114;2023-02-15T05:55:05;65.18;;;22.20;;
61471;SDS011;47337;54.068;12.114;2023-02-15T05:57:31;61.60;;;21.83;;
61471;SDS011;47337;54.068;12.114;2023-02-15T06:00:00;60.30;;;22.25;;
61471;SDS011;47337;54.068;12.114;2023-02-15T06:02:29;65.88;;;22.75;;
61471;SDS011;47337;54.068;12.114;2023-02-15T06:04:57;65.32;;;21.88;;
61471;SDS011;47337;54.068;12.114;2023-02-15T06:07:25;62.45;;;22.45;;
61471;SDS011;47337;54.068;12.114;2023-02-15T06:09:51;66.30;;;22.45;;
61471;SDS011;47337;54.068;12.114;2023-02-15T06:12:16;62.78;;;23.02;;
61471;SDS011;47337;54.068;12.114;2023-02-15T06:14:42;67.05;;;23.10;;
61471;SDS011;47337;54.068;12.114;2023-02-15T06:17:07;64.82;;;23.25;;
61471;SDS011;47337;54.068;12.114;2023-02-15T06:19:32;64.80;;;22.08;;
61471;SDS011;47337;54.068;12.114;2023-02-15T06:21:58;67.65;;;23.63;;
61471;SDS011;47337;54.068;12.114;2023-02-15T06:24:23;59.15;;;23.00;;
61471;SDS011;47337;54.068;12.114;2023-02-15T06:26:51;67.32;;;22.85;;
61471;SDS011;47337;54.068;12.114;2023-02-15T06:29:16;87.68;;;26.17;;
61471;SDS011;47337;54.068;12.114;2023-02-15T06:31:42;63.20;;;22.45;;
61471;SDS011;47337;54.068;12.114;2023-02-15T06:34:07;67.25;;;23.15;;
61471;SDS011;47337;54.068;12.114;2023-02-15T06:36:33;61.92;;;21.52;;
61471;SDS011;47337;54.068;12.114;2023-02-15T06:38:58;72.47;;;23.40;;
61471;SDS011;47337;54.068;12.114;2023-02-15T06:41:24;63.10;;;21.98;;
61471;SDS011;47337;54.068;12.114;2023-02-15T06:43:49;68.97;;;22.83;;
61471;SDS011;47337;54.068;12.114;2023-02-15T06:46:15;66.28;;;21.80;;
61471;SDS011;47337;54.068;12.114;2023-02-15T06:48:42;67.20;;;23.13;;
61471;SDS011;47337;54.068;12.114;2023-02-15T06:51:11;68.72;;;23.40;;
61471;SDS011;47337;54.068;12.114;2023-02-15T06:53:36;67.80;;;23.80;;
61471;SDS011;47337;54.068;12.114;2023-02-15T06:56:02;59.10;;;21.77;;
61471;SDS011;47337;54.068;12.114;2023-02-15T06:58:31;68.90;;;23.45;;
61471;SDS011;47337;54.068;12.114;2023-02-15T07:01:00;63.90;;;22.27;;
61471;SDS011;47337;54.068;12.114;2023-02-15T07:03:28;61.92;;;22.58;;
61471;SDS011;47337;54.068;12.114;2023-02-15T07:05:58;66.45;;;23.13;;
61471;SDS011;47337;54.068;12.114;2023-02-15T07:08:25;67.30;;;23.25;;
61471;SDS011;47337;54.068;12.114;2023-02-15T07:10:54;72.15;;;23.55;;
61471;SDS011;47337;54.068;12.114;2023-02-15T07:13:40;57.78;;;21.15;;
61471;SDS011;47337;54.068;12.114;2023-02-15T07:16:09;54.92;;;20.80;;
61471;SDS011;47337;54.068;12.114;2023-02-15T07:18:35;61.70;;;21.33;;
61471;SDS011;47337;54.068;12.114;2023-02-15T07:21:00;70.28;;;23.45;;
61471;SDS011;47337;54.068;12.114;2023-02-15T07:23:27;71.78;;;24.38;;
61471;SDS011;47337;54.068;12.114;2023-02-15T07:25:56;63.58;;;22.35;;
61471;SDS011;47337;54.068;12.114;2023-02-15T07:28:22;62.40;;;22.58;;
61471;SDS011;47337;54.068;12.114;2023-02-15T07:30:50;66.88;;;22.65;;
61471;SDS011;47337;54.068;12.114;2023-02-15T07:33:15;67.80;;;22.95;;
61471;SDS011;47337;54.068;12.114;2023-02-15T07:35:50;56.78;;;21.40;;
61471;SDS011;47337;54.068;12.114;2023-02-15T07:38:18;66.68;;;22.85;;
61471;SDS011;47337;54.068;12.114;2023-02-15T07:40:44;65.05;;;22.27;;
61471;SDS011;47337;54.068;12.114;2023-02-15T07:43:12;66.20;;;22.67;;
61471;SDS011;47337;54.068;12.114;2023-02-15T07:45:38;69.07;;;23.30;;
61471;SDS011;47337;54.068;12.114;2023-02-15T07:48:05;66.15;;;22.15;;
61471;SDS011;47337;54.068;12.114;2023-02-15T07:50:33;58.85;;;21.25;;
61471;SDS011;47337;54.068;12.114;2023-02-15T07:53:00;63.90;;;22.58;;
61471;SDS011;47337;54.068;12.114;2023-02-15T07:55:27;61.05;;;22.25;;
61471;SDS011;47337;54.068;12.114;2023-02-15T07:57:54;68.15;;;23.30;;
61471;SDS011;47337;54.068;12.114;2023-02-15T08:00:20;67.82;;;24.00;;
61471;SDS011;47337;54.068;12.114;2023-02-15T08:02:53;65.57;;;22.48;;
61471;SDS011;47337;54.068;12.114;2023-02-15T08:05:39;69.70;;;25.05;;
61471;SDS011;47337;54.068;12.114;2023-02-15T08:08:06;73.20;;;25.30;;
61471;SDS011;47337;54.068;12.114;2023-02-15T08:10:32;63.83;;;23.33;;
61471;SDS011;47337;54.068;12.114;2023-02-15T08:13:16;64.32;;;22.88;;
61471;SDS011;47337;54.068;12.114;2023-02-15T08:15:50;57.42;;;21.08;;
61471;SDS011;47337;54.068;12.114;2023-02-15T08:18:16;62.00;;;22.90;;
61471;SDS011;47337;54.068;12.114;2023-02-15T08:20:41;64.43;;;23.95;;
61471;SDS011;47337;54.068;12.114;2023-02-15T08:23:10;65.60;;;23.02;;
61471;SDS011;47337;54.068;12.114;2023-02-15T08:25:35;58.33;;;21.48;;
61471;SDS011;47337;54.068;12.114;2023-02-15T08:28:01;63.90;;;22.95;;
61471;SDS011;47337;54.068;12.114;2023-02-15T08:30:26;63.30;;;22.77;;
61471;SDS011;47337;54.068;12.114;2023-02-15T08:32:52;62.88;;;23.45;;
61471;SDS011;47337;54.068;12.114;2023-02-15T08:35:17;67.38;;;22.55;;
61471;SDS011;47337;54.068;12.114;2023-02-15T08:37:42;61.40;;;21.35;;
61471;SDS011;47337;54.068;12.114;2023-02-15T08:40:10;57.08;;;22.42;;
61471;SDS011;47337;54.068;12.114;2023-02-15T08:42:38;59.95;;;21.33;;
61471;SDS011;47337;54.068;12.114;2023-02-15T08:45:03;58.35;;;21.55;;
61471;SDS011;47337;54.068;12.114;2023-02-15T08:47:29;57.83;;;21.67;;
61471;SDS011;47337;54.068;12.114;2023-02-15T08:49:55;55.38;;;20.73;;
61471;SDS011;47337;54.068;12.114;2023-02-15T08:52:20;53.20;;;20.02;;
61471;SDS011;47337;54.068;12.114;2023-02-15T08:54:46;57.65;;;21.08;;
61471;SDS011;47337;54.068;12.114;2023-02-15T08:57:11;49.53;;;18.88;;
61471;SDS011;47337;54.068;12.114;2023-02-15T08:59:36;49.72;;;18.83;;
61471;SDS011;47337;54.068;12.114;2023-02-15T09:02:04;56.85;;;21.27;;
61471;SDS011;47337;54.068;12.114;2023-02-15T09:04:30;55.63;;;20.30;;
61471;SDS011;47337;54.068;12.114;2023-02-15T09:06:56;47.60;;;19.30;;
61471;SDS011;47337;54.068;12.114;2023-02-15T09:09:24;52.25;;;20.85;;
61471;SDS011;47337;54.068;12.114;2023-02-15T09:11:50;55.30;;;20.85;;
61471;SDS011;47337;54.068;12.114;2023-02-15T09:14:17;50.58;;;20.10;;
61471;SDS011;47337;54.068;12.114;2023-02-15T09:16:49;55.20;;;19.00;;
61471;SDS011;47337;54.068;12.114;2023-02-15T09:19:19;48.30;;;20.33;;
61471;SDS011;47337;54.068;12.114;2023-02-15T09:21:46;49.55;;;19.73;;
61471;SDS011;47337;54.068;12.114;2023-02-15T09:24:13;43.78;;;18.63;;
61471;SDS011;47337;54.068;12.114;2023-02-15T09:26:41;47.55;;;18.30;;
61471;SDS011;47337;54.068;12.114;2023-02-15T09:29:08;43.50;;;18.95;;
61471;SDS011;47337;54.068;12.114;2023-02-15T09:31:45;47.88;;;18.90;;
61471;SDS011;47337;54.068;12.114;2023-02-15T09:34:14;46.83;;;19.35;;
61471;SDS011;47337;54.068;12.114;2023-02-15T09:36:42;54.80;;;18.90;;
61471;SDS011;47337;54.068;12.114;2023-02-15T09:56:36;42.63;;;18.50;;
61471;SDS011;47337;54.068;12.114;2023-02-15T09:59:19;46.42;;;18.20;;
61471;SDS011;47337;54.068;12.114;2023-02-15T10:04:48;45.03;;;18.38;;
61471;SDS011;47337;54.068;12.114;2023-02-15T10:10:47;43.20;;;18.63;;
61471;SDS011;47337;54.068;12.114;2023-02-15T10:13:34;45.05;;;18.33;;
61471;SDS011;47337;54.068;12.114;2023-02-15T10:27:08;49.58;;;20.17;;
61471;SDS011;47337;54.068;12.114;2023-02-15T10:29:38;51.42;;;19.13;;
61471;SDS011;47337;54.068;12.114;2023-02-15T10:37:42;55.08;;;21.35;;
61471;SDS011;47337;54.068;12.114;2023-02-15T10:40:36;51.75;;;21.75;;
61471;SDS011;47337;54.068;12.114;2023-02-15T10:46:35;60.13;;;20.42;;
61471;SDS011;47337;54.068;12.114;2023-02-15T10:57:24;57.38;;;21.63;;
61471;SDS011;47337;54.068;12.114;2023-02-15T11:00:12;61.45;;;21.08;;
61471;SDS011;47337;54.068;12.114;2023-02-15T11:03:16;52.58;;;21.67;;
61471;SDS011;47337;54.068;12.114;2023-02-15T11:06:04;64.05;;;22.05;;
61471;SDS011;47337;54.068;12.114;2023-02-15T11:08:32;60.72;;;22.58;;
61471;SDS011;47337;54.068;12.114;2023-02-15T11:11:06;55.20;;;21.88;;
61471;SDS011;47337;54.068;12.114;2023-02-15T11:13:44;59.58;;;22.25;;
61471;SDS011;47337;54.068;12.114;2023-02-15T11:16:17;54.80;;;21.17;;
61471;SDS011;47337;54.068;12.114;2023-02-15T11:18:54;55.75;;;21.85;;
61471;SDS011;47337;54.068;12.114;2023-02-15T11:21:30;57.00;;;22.55;;
61471;SDS011;47337;54.068;12.114;2023-02-15T11:24:10;62.85;;;23.65;;
61471;SDS011;47337;54.068;12.114;2023-02-15T11:29:19;61.65;;;22.55;;
61471;SDS011;47337;54.068;12.114;2023-02-15T11:31:56;65.00;;;23.58;;
61471;SDS011;47337;54.068;12.114;2023-02-15T11:36:58;60.58;;;23.52;;
61471;SDS011;47337;54.068;12.114;2023-02-15T11:39:27;55.72;;;22.50;;
61471;SDS011;47337;54.068;12.114;2023-02-15T11:41:55;61.13;;;22.95;;
61471;SDS011;47337;54.068;12.114;2023-02-15T11:44:26;50.53;;;20.73;;
61471;SDS011;47337;54.068;12.114;2023-02-15T11:46:58;60.25;;;23.52;;
61471;SDS011;47337;54.068;12.114;2023-02-15T11:49:27;59.05;;;23.00;;
61471;SDS011;47337;54.068;12.114;2023-02-15T11:52:01;61.92;;;23.50;;
61471;SDS011;47337;54.068;12.114;2023-02-15T11:54:31;57.28;;;23.48;;
61471;SDS011;47337;54.068;12.114;2023-02-15T11:57:10;58.83;;;23.48;;
61471;SDS011;47337;54.068;12.114;2023-02-15T11:59:41;60.90;;;24.58;;
61471;SDS011;47337;54.068;12.114;2023-02-15T12:02:16;60.78;;;25.45;;
61471;SDS011;47337;54.068;12.114;2023-02-15T12:05:05;63.78;;;23.50;;
61471;SDS011;47337;54.068;12.114;2023-02-15T12:07:46;64.00;;;23.70;;
61471;SDS011;47337;54.068;12.114;2023-02-15T12:15:48;60.70;;;24.20;;
61471;SDS011;47337;54.068;12.114;2023-02-15T12:18:18;64.88;;;26.55;;
61471;SDS011;47337;54.068;12.114;2023-02-15T12:21:05;57.85;;;23.33;;
61471;SDS011;47337;54.068;12.114;2023-02-15T12:23:58;59.70;;;24.02;;
61471;SDS011;47337;54.068;12.114;2023-02-15T12:26:27;61.17;;;24.58;;
61471;SDS011;47337;54.068;12.114;2023-02-15T12:29:00;60.58;;;23.92;;
61471;SDS011;47337;54.068;12.114;2023-02-15T12:31:35;64.55;;;25.35;;
61471;SDS011;47337;54.068;12.114;2023-02-15T12:34:09;62.47;;;24.92;;
61471;SDS011;47337;54.068;12.114;2023-02-15T12:36:42;66.78;;;26.73;;
61471;SDS011;47337;54.068;12.114;2023-02-15T12:41:45;67.90;;;25.30;;
61471;SDS011;47337;54.068;12.114;2023-02-15T12:46:59;64.95;;;25.05;;
61471;SDS011;47337;54.068;12.114;2023-02-15T12:49:42;56.13;;;23.58;;
61471;SDS011;47337;54.068;12.114;2023-02-15T12:54:43;59.58;;;24.65;;
61471;SDS011;47337;54.068;12.114;2023-02-15T12:57:28;60.65;;;23.25;;
61471;SDS011;47337;54.068;12.114;2023-02-15T13:00:02;65.10;;;24.50;;
61471;SDS011;47337;54.068;12.114;2023-02-15T13:02:52;58.22;;;23.65;;
61471;SDS011;47337;54.068;12.114;2023-02-15T13:05:29;55.60;;;22.92;;
61471;SDS011;47337;54.068;12.114;2023-02-15T13:07:56;64.82;;;24.80;;
61471;SDS011;47337;54.068;12.114;2023-02-15T13:10:29;54.58;;;23.83;;
61471;SDS011;47337;54.068;12.114;2023-02-15T13:15:34;59.80;;;23.15;;
61471;SDS011;47337;54.068;12.114;2023-02-15T13:18:02;59.53;;;23.90;;
61471;SDS011;47337;54.068;12.114;2023-02-15T13:20:35;56.85;;;22.42;;
61471;SDS011;47337;54.068;12.114;2023-02-15T13:23:06;68.35;;;24.85;;
61471;SDS011;47337;54.068;12.114;2023-02-15T13:25:45;62.85;;;24.13;;
61471;SDS011;47337;54.068;12.114;2023-02-15T13:28:16;65.00;;;24.85;;
61471;SDS011;47337;54.068;12.114;2023-02-15T13:30:44;62.17;;;24.40;;
61471;SDS011;47337;54.068;12.114;2023-02-15T13:41:30;66.90;;;24.10;;
61471;SDS011;47337;54.068;12.114;2023-02-15T13:49:37;54.60;;;22.88;;
61471;SDS011;47337;54.068;12.114;2023-02-15T13:52:22;57.17;;;21.92;;
61471;SDS011;47337;54.068;12.114;2023-02-15T13:59:55;50.75;;;22.58;;
61471;SDS011;47337;54.068;12.114;2023-02-15T14:10:56;58.00;;;22.70;;
61471;SDS011;47337;54.068;12.114;2023-02-15T14:27:41;50.72;;;20.33;;
61471;SDS011;47337;54.068;12.114;2023-02-15T14:30:20;52.65;;;21.60;;
61471;SDS011;47337;54.068;12.114;2023-02-15T14:32:53;49.70;;;21.17;;
61471;SDS011;47337;54.068;12.114;2023-02-15T14:35:22;45.92;;;19.67;;
61471;SDS011;47337;54.068;12.114;2023-02-15T14:48:54;45.38;;;19.10;;
61471;SDS011;47337;54.068;12.114;2023-02-15T14:54:54;48.30;;;19.75;;
61471;SDS011;47337;54.068;12.114;2023-02-15T14:59:37;49.40;;;19.98;;
61471;SDS011;47337;54.068;12.114;2023-02-15T15:05:10;44.78;;;18.60;;
61471;SDS011;47337;54.068;12.114;2023-02-15T15:12:41;50.47;;;21.52;;
61471;SDS011;47337;54.068;12.114;2023-02-15T15:15:11;54.50;;;22.17;;
61471;SDS011;47337;54.068;12.114;2023-02-15T15:25:40;55.33;;;21.05;;
61471;SDS011;47337;54.068;12.114;2023-02-15T15:28:06;57.03;;;21.77;;
61471;SDS011;47337;54.068;12.114;2023-02-15T15:46:49;55.50;;;22.33;;
61471;SDS011;47337;54.068;12.114;2023-02-15T15:49:24;51.65;;;20.90;;
61471;SDS011;47337;54.068;12.114;2023-02-15T15:51:56;53.75;;;21.88;;
61471;SDS011;47337;54.068;12.114;2023-02-15T15:54:26;55.75;;;22.85;;
61471;SDS011;47337;54.068;12.114;2023-02-15T15:56:56;64.13;;;24.50;;
61471;SDS011;47337;54.068;12.114;2023-02-15T15:59:26;54.20;;;22.98;;
61471;SDS011;47337;54.068;12.114;2023-02-15T16:02:03;58.97;;;22.77;;
61471;SDS011;47337;54.068;12.114;2023-02-15T16:04:31;62.40;;;22.20;;
61471;SDS011;47337;54.068;12.114;2023-02-15T16:07:13;59.38;;;22.52;;
61471;SDS011;47337;54.068;12.114;2023-02-15T16:12:18;62.08;;;22.20;;
61471;SDS011;47337;54.068;12.114;2023-02-15T16:14:44;55.15;;;22.95;;
61471;SDS011;47337;54.068;12.114;2023-02-15T16:17:28;61.17;;;24.02;;
61471;SDS011;47337;54.068;12.114;2023-02-15T16:20:05;55.60;;;23.38;;
61471;SDS011;47337;54.068;12.114;2023-02-15T16:22:49;61.65;;;23.63;;
61471;SDS011;47337;54.068;12.114;2023-02-15T16:25:40;55.35;;;21.05;;
61471;SDS011;47337;54.068;12.114;2023-02-15T16:28:29;59.25;;;23.45;;
61471;SDS011;47337;54.068;12.114;2023-02-15T16:30:58;60.58;;;22.77;;
61471;SDS011;47337;54.068;12.114;2023-02-15T16:33:34;57.03;;;22.67;;
61471;SDS011;47337;54.068;12.114;2023-02-15T16:36:02;62.72;;;23.17;;
61471;SDS011;47337;54.068;12.114;2023-02-15T16:41:12;60.78;;;22.50;;
61471;SDS011;47337;54.068;12.114;2023-02-15T16:43:40;55.10;;;22.80;;
61471;SDS011;47337;54.068;12.114;2023-02-15T16:46:51;65.32;;;23.90;;
61471;SDS011;47337;54.068;12.114;2023-02-15T16:49:19;63.10;;;25.05;;
61471;SDS011;47337;54.068;12.114;2023-02-15T16:51:57;62.05;;;23.88;;
61471;SDS011;47337;54.068;12.114;2023-02-15T16:54:25;66.07;;;24.55;;
61471;SDS011;47337;54.068;12.114;2023-02-15T16:56:56;67.55;;;24.92;;
61471;SDS011;47337;54.068;12.114;2023-02-15T16:59:30;67.45;;;25.42;;
61471;SDS011;47337;54.068;12.114;2023-02-15T17:02:05;64.53;;;25.60;;
61471;SDS011;47337;54.068;12.114;2023-02-15T17:04:35;63.40;;;24.63;;
61471;SDS011;47337;54.068;12.114;2023-02-15T17:07:05;65.07;;;26.17;;
61471;SDS011;47337;54.068;12.114;2023-02-15T17:09:40;70.63;;;26.88;;
61471;SDS011;47337;54.068;12.114;2023-02-15T17:15:33;60.05;;;23.77;;
61471;SDS011;47337;54.068;12.114;2023-02-15T17:18:22;75.35;;;24.23;;
61471;SDS011;47337;54.068;12.114;2023-02-15T17:20:53;65.30;;;25.73;;
61471;SDS011;47337;54.068;12.114;2023-02-15T17:25:53;63.47;;;25.10;;
61471;SDS011;47337;54.068;12.114;2023-02-15T17:28:23;71.53;;;26.33;;
61471;SDS011;47337;54.068;12.114;2023-02-15T17:30:53;72.68;;;25.15;;
61471;SDS011;47337;54.068;12.114;2023-02-15T17:38:35;68.97;;;24.90;;
61471;SDS011;47337;54.068;12.114;2023-02-15T17:41:06;68.85;;;24.90;;
61471;SDS011;47337;54.068;12.114;2023-02-15T17:43:32;69.40;;;24.95;;
61471;SDS011;47337;54.068;12.114;2023-02-15T17:45:57;65.90;;;24.13;;
61471;SDS011;47337;54.068;12.114;2023-02-15T17:48:36;64.22;;;24.33;;
61471;SDS011;47337;54.068;12.114;2023-02-15T17:51:05;68.05;;;24.30;;
61471;SDS011;47337;54.068;12.114;2023-02-15T17:53:36;74.10;;;24.27;;
61471;SDS011;47337;54.068;12.114;2023-02-15T17:56:03;65.93;;;23.42;;